sensor_id;sensor_type;location;lat;lon;timestamp;temperature;humidity
20208;DHT22;10263;48.716;8.760;2023-01-28T00:06:01;-0.80;99.90
20208;DHT22;10263;48.716;8.760;2023-01-28T00:10:58;-0.80;99.90
20208;DHT22;10263;48.716;8.760;2023-01-28T00:13:26;-0.80;99.90
20208;DHT22;10263;48.716;8.760;2023-01-28T00:15:57;-0.80;99.90
20208;DHT22;10263;48.716;8.760;2023-01-28T00:20:56;-0.80;99.90
20208;DHT22;10263;48.716;8.760;2023-01-28T00:25:50;-0.70;99.90
20208;DHT22;10263;48.716;8.760;2023-01-28T00:30:47;-0.80;99.90
20208;DHT22;10263;48.716;8.760;2023-01-28T00:33:14;-0.80;99.90
20208;DHT22;10263;48.716;8.760;2023-01-28T00:38:09;-0.70;99.90
20208;DHT22;10263;48.716;8.760;2023-01-28T00:40:36;-0.80;99.90
20208;DHT22;10263;48.716;8.760;2023-01-28T00:43:03;-0.80;99.90
20208;DHT22;10263;48.716;8.760;2023-01-28T00:47:58;-0.70;99.90
20208;DHT22;10263;48.716;8.760;2023-01-28T00:55:19;-0.70;99.90
20208;DHT22;10263;48.716;8.760;2023-01-28T01:00:14;-0.80;99.90
20208;DHT22;10263;48.716;8.760;2023-01-28T01:05:12;-0.70;99.90
20208;DHT22;10263;48.716;8.760;2023-01-28T01:07:39;-0.80;99.90
20208;DHT22;10263;48.716;8.760;2023-01-28T01:10:08;-0.80;99.90
20208;DHT22;10263;48.716;8.760;2023-01-28T01:15:04;-0.80;99.90
20208;DHT22;10263;48.716;8.760;2023-01-28T01:17:33;-0.70;99.90
20208;DHT22;10263;48.716;8.760;2023-01-28T01:20:07;-0.80;99.90
20208;DHT22;10263;48.716;8.760;2023-01-28T01:22:36;-0.80;99.90
20208;DHT22;10263;48.716;8.760;2023-01-28T01:25:04;-0.80;99.90
20208;DHT22;10263;48.716;8.760;2023-01-28T01:27:31;-0.80;99.90
20208;DHT22;10263;48.716;8.760;2023-01-28T01:32:28;-0.70;99.90
20208;DHT22;10263;48.716;8.760;2023-01-28T01:34:55;-0.70;99.90
20208;DHT22;10263;48.716;8.760;2023-01-28T01:39:52;-0.70;99.90
20208;DHT22;10263;48.716;8.760;2023-01-28T01:44:55;-0.70;99.90
20208;DHT22;10263;48.716;8.760;2023-01-28T01:47:24;-0.70;99.90
20208;DHT22;10263;48.716;8.760;2023-01-28T01:49:53;-0.70;99.90
20208;DHT22;10263;48.716;8.760;2023-01-28T01:52:25;-0.70;99.90
20208;DHT22;10263;48.716;8.760;2023-01-28T01:54:56;-0.70;99.90
20208;DHT22;10263;48.716;8.760;2023-01-28T01:57:29;-0.70;99.90
20208;DHT22;10263;48.716;8.760;2023-01-28T01:59:57;-0.60;99.90
20208;DHT22;10263;48.716;8.760;2023-01-28T02:02:40;-0.70;99.90
20208;DHT22;10263;48.716;8.760;2023-01-28T02:05:10;-0.70;99.90
20208;DHT22;10263;48.716;8.760;2023-01-28T02:07:37;-0.70;99.90
20208;DHT22;10263;48.716;8.760;2023-01-28T02:10:07;-0.60;99.90
20208;DHT22;10263;48.716;8.760;2023-01-28T02:12:37;-0.60;99.90
20208;DHT22;10263;48.716;8.760;2023-01-28T02:15:07;-0.60;99.90
20208;DHT22;10263;48.716;8.760;2023-01-28T02:17:35;-0.70;99.90
20208;DHT22;10263;48.716;8.760;2023-01-28T02:20:06;-0.60;99.90
20208;DHT22;10263;48.716;8.760;2023-01-28T02:22:45;-0.60;99.90
20208;DHT22;10263;48.716;8.760;2023-01-28T02:28:22;-0.60;99.90
20208;DHT22;10263;48.716;8.760;2023-01-28T02:30:57;-0.60;99.90
20208;DHT22;10263;48.716;8.760;2023-01-28T02:33:38;-0.60;99.90
20208;DHT22;10263;48.716;8.760;2023-01-28T02:36:14;-0.60;99.90
20208;DHT22;10263;48.716;8.760;2023-01-28T02:38:46;-0.70;99.90
20208;DHT22;10263;48.716;8.760;2023-01-28T02:41:19;-0.70;99.90
20208;DHT22;10263;48.716;8.760;2023-01-28T02:46:20;-0.60;99.90
20208;DHT22;10263;48.716;8.760;2023-01-28T02:49:10;-0.60;99.90
20208;DHT22;10263;48.716;8.760;2023-01-28T02:51:49;-0.60;99.90
20208;DHT22;10263;48.716;8.760;2023-01-28T02:54:24;-0.70;99.90
20208;DHT22;10263;48.716;8.760;2023-01-28T02:56:59;-0.70;99.90
20208;DHT22;10263;48.716;8.760;2023-01-28T02:59:37;-0.60;99.90
20208;DHT22;10263;48.716;8.760;2023-01-28T03:02:12;-0.60;99.90
20208;DHT22;10263;48.716;8.760;2023-01-28T03:04:46;-0.60;99.90
20208;DHT22;10263;48.716;8.760;2023-01-28T03:07:15;-0.60;99.90
20208;DHT22;10263;48.716;8.760;2023-01-28T03:09:44;-0.60;99.90
20208;DHT22;10263;48.716;8.760;2023-01-28T03:12:15;-0.60;99.90
20208;DHT22;10263;48.716;8.760;2023-01-28T03:15:04;-0.70;99.90
20208;DHT22;10263;48.716;8.760;2023-01-28T03:17:54;-0.60;99.90
20208;DHT22;10263;48.716;8.760;2023-01-28T03:20:50;-0.60;99.90
20208;DHT22;10263;48.716;8.760;2023-01-28T03:23:41;-0.60;99.90
20208;DHT22;10263;48.716;8.760;2023-01-28T03:26:28;-0.60;99.90
20208;DHT22;10263;48.716;8.760;2023-01-28T03:29:17;-0.60;99.90
20208;DHT22;10263;48.716;8.760;2023-01-28T03:32:05;-0.60;99.90
20208;DHT22;10263;48.716;8.760;2023-01-28T03:34:50;-0.60;99.90
20208;DHT22;10263;48.716;8.760;2023-01-28T03:37:37;-0.60;99.90
20208;DHT22;10263;48.716;8.760;2023-01-28T03:42:46;-0.60;99.90
20208;DHT22;10263;48.716;8.760;2023-01-28T03:47:59;-0.60;99.90
20208;DHT22;10263;48.716;8.760;2023-01-28T03:52:58;-0.60;99.90
20208;DHT22;10263;48.716;8.760;2023-01-28T03:55:42;-0.60;99.90
20208;DHT22;10263;48.716;8.760;2023-01-28T03:58:10;-0.60;99.90
20208;DHT22;10263;48.716;8.760;2023-01-28T04:00:38;-0.60;99.90
20208;DHT22;10263;48.716;8.760;2023-01-28T04:08:12;-0.60;99.90
20208;DHT22;10263;48.716;8.760;2023-01-28T04:23:36;-0.60;99.90
20208;DHT22;10263;48.716;8.760;2023-01-28T04:26:03;-0.60;99.90
20208;DHT22;10263;48.716;8.760;2023-01-28T04:30:58;-0.60;99.90
20208;DHT22;10263;48.716;8.760;2023-01-28T04:39:06;-0.60;99.90
20208;DHT22;10263;48.716;8.760;2023-01-28T04:52:34;-0.50;99.90
20208;DHT22;10263;48.716;8.760;2023-01-28T04:55:18;-0.50;99.90
20208;DHT22;10263;48.716;8.760;2023-01-28T04:57:46;-0.50;99.90
20208;DHT22;10263;48.716;8.760;2023-01-28T05:00:14;-0.50;99.90
20208;DHT22;10263;48.716;8.760;2023-01-28T05:02:41;-0.50;99.90
20208;DHT22;10263;48.716;8.760;2023-01-28T05:07:46;-0.50;99.90
20208;DHT22;10263;48.716;8.760;2023-01-28T05:10:16;-0.40;99.90
20208;DHT22;10263;48.716;8.760;2023-01-28T05:12:45;-0.50;99.90
20208;DHT22;10263;48.716;8.760;2023-01-28T05:20:10;-0.50;99.90
20208;DHT22;10263;48.716;8.760;2023-01-28T05:25:13;-0.40;99.90
20208;DHT22;10263;48.716;8.760;2023-01-28T05:30:10;-0.50;99.90
20208;DHT22;10263;48.716;8.760;2023-01-28T05:35:05;-0.40;99.90
20208;DHT22;10263;48.716;8.760;2023-01-28T05:45:11;-0.40;99.90
20208;DHT22;10263;48.716;8.760;2023-01-28T05:47:59;-0.40;99.90
20208;DHT22;10263;48.716;8.760;2023-01-28T05:50:46;-0.50;99.90
20208;DHT22;10263;48.716;8.760;2023-01-28T05:53:19;-0.40;99.90
20208;DHT22;10263;48.716;8.760;2023-01-28T05:55:47;-0.40;99.90
20208;DHT22;10263;48.716;8.760;2023-01-28T06:00:43;-0.40;99.90
20208;DHT22;10263;48.716;8.760;2023-01-28T06:03:11;-0.40;99.90
20208;DHT22;10263;48.716;8.760;2023-01-28T06:10:35;-0.40;99.90
20208;DHT22;10263;48.716;8.760;2023-01-28T06:18:26;-0.40;99.90
20208;DHT22;10263;48.716;8.760;2023-01-28T06:20:53;-0.40;99.90
20208;DHT22;10263;48.716;8.760;2023-01-28T06:25:52;-0.40;99.90
20208;DHT22;10263;48.716;8.760;2023-01-28T06:28:21;-0.40;99.90
20208;DHT22;10263;48.716;8.760;2023-01-28T06:30:49;-0.40;99.90
20208;DHT22;10263;48.716;8.760;2023-01-28T06:33:16;-0.40;99.90
20208;DHT22;10263;48.716;8.760;2023-01-28T06:35:45;-0.40;99.90
20208;DHT22;10263;48.716;8.760;2023-01-28T06:48:01;-0.50;99.90
20208;DHT22;10263;48.716;8.760;2023-01-28T06:52:56;-0.40;99.90
20208;DHT22;10263;48.716;8.760;2023-01-28T07:00:18;-0.40;99.90
20208;DHT22;10263;48.716;8.760;2023-01-28T07:05:12;-0.40;99.90
20208;DHT22;10263;48.716;8.760;2023-01-28T07:10:08;-0.40;99.90
20208;DHT22;10263;48.716;8.760;2023-01-28T07:15:03;-0.40;99.90
20208;DHT22;10263;48.716;8.760;2023-01-28T07:27:20;0.60;99.90
20208;DHT22;10263;48.716;8.760;2023-01-28T07:29:47;-0.40;99.90
20208;DHT22;10263;48.716;8.760;2023-01-28T07:44:36;1.10;99.90
20208;DHT22;10263;48.716;8.760;2023-01-28T07:47:04;-0.30;99.90
20208;DHT22;10263;48.716;8.760;2023-01-28T07:49:32;-1.50;99.90
20208;DHT22;10263;48.716;8.760;2023-01-28T07:59:21;-0.30;99.90
20208;DHT22;10263;48.716;8.760;2023-01-28T08:01:49;-0.20;99.90
20208;DHT22;10263;48.716;8.760;2023-01-28T08:11:39;-0.10;99.90
20208;DHT22;10263;48.716;8.760;2023-01-28T08:19:02;-0.10;99.90
20208;DHT22;10263;48.716;8.760;2023-01-28T08:21:29;-0.10;99.90
20208;DHT22;10263;48.716;8.760;2023-01-28T08:28:50;0.10;99.90
20208;DHT22;10263;48.716;8.760;2023-01-28T08:36:13;0.00;99.90
20208;DHT22;10263;48.716;8.760;2023-01-28T08:43:35;0.10;99.90
20208;DHT22;10263;48.716;8.760;2023-01-28T08:46:04;0.00;99.90
20208;DHT22;10263;48.716;8.760;2023-01-28T08:53:26;0.20;99.90
20208;DHT22;10263;48.716;8.760;2023-01-28T08:55:53;0.10;99.90
20208;DHT22;10263;48.716;8.760;2023-01-28T09:00:48;0.20;99.90
20208;DHT22;10263;48.716;8.760;2023-01-28T09:05:43;0.30;99.90
20208;DHT22;10263;48.716;8.760;2023-01-28T09:08:12;0.30;99.90
20208;DHT22;10263;48.716;8.760;2023-01-28T09:10:40;0.20;99.90
20208;DHT22;10263;48.716;8.760;2023-01-28T09:13:09;0.30;99.90
20208;DHT22;10263;48.716;8.760;2023-01-28T09:15:36;0.30;99.90
20208;DHT22;10263;48.716;8.760;2023-01-28T09:18:03;0.30;99.90
20208;DHT22;10263;48.716;8.760;2023-01-28T09:20:31;0.40;99.90
20208;DHT22;10263;48.716;8.760;2023-01-28T09:22:58;0.30;99.90
20208;DHT22;10263;48.716;8.760;2023-01-28T09:27:54;0.50;99.90
20208;DHT22;10263;48.716;8.760;2023-01-28T09:30:21;0.40;99.90
20208;DHT22;10263;48.716;8.760;2023-01-28T09:32:49;0.50;99.90
20208;DHT22;10263;48.716;8.760;2023-01-28T09:40:14;0.60;99.90
20208;DHT22;10263;48.716;8.760;2023-01-28T09:42:53;0.50;99.90
20208;DHT22;10263;48.716;8.760;2023-01-28T09:45:32;0.50;99.90
20208;DHT22;10263;48.716;8.760;2023-01-28T09:48:04;0.50;99.90
20208;DHT22;10263;48.716;8.760;2023-01-28T09:50:32;0.50;99.90
20208;DHT22;10263;48.716;8.760;2023-01-28T09:53:03;0.50;99.90
20208;DHT22;10263;48.716;8.760;2023-01-28T09:55:34;0.60;99.90
20208;DHT22;10263;48.716;8.760;2023-01-28T09:58:05;0.50;99.90
20208;DHT22;10263;48.716;8.760;2023-01-28T10:00:39;0.60;99.90
20208;DHT22;10263;48.716;8.760;2023-01-28T10:03:28;0.50;99.90
20208;DHT22;10263;48.716;8.760;2023-01-28T10:06:07;0.60;99.90
20208;DHT22;10263;48.716;8.760;2023-01-28T10:09:05;0.60;99.90
20208;DHT22;10263;48.716;8.760;2023-01-28T10:11:46;0.60;99.90
20208;DHT22;10263;48.716;8.760;2023-01-28T10:14:26;0.60;99.90
20208;DHT22;10263;48.716;8.760;2023-01-28T10:17:03;1.30;99.90
20208;DHT22;10263;48.716;8.760;2023-01-28T10:19:34;0.60;99.90
20208;DHT22;10263;48.716;8.760;2023-01-28T10:22:05;0.60;99.90
20208;DHT22;10263;48.716;8.760;2023-01-28T10:24:34;0.70;99.90
20208;DHT22;10263;48.716;8.760;2023-01-28T10:27:02;0.60;99.90
20208;DHT22;10263;48.716;8.760;2023-01-28T10:29:35;0.70;99.90
20208;DHT22;10263;48.716;8.760;2023-01-28T10:32:16;0.70;99.90
20208;DHT22;10263;48.716;8.760;2023-01-28T10:34:44;0.70;99.90
20208;DHT22;10263;48.716;8.760;2023-01-28T10:37:12;0.70;99.90
20208;DHT22;10263;48.716;8.760;2023-01-28T10:42:16;0.70;99.90
20208;DHT22;10263;48.716;8.760;2023-01-28T10:44:46;0.70;99.90
20208;DHT22;10263;48.716;8.760;2023-01-28T10:47:22;0.70;99.90
20208;DHT22;10263;48.716;8.760;2023-01-28T10:49:55;0.70;99.90
20208;DHT22;10263;48.716;8.760;2023-01-28T10:52:24;0.70;99.90
20208;DHT22;10263;48.716;8.760;2023-01-28T10:54:59;0.70;99.90
20208;DHT22;10263;48.716;8.760;2023-01-28T10:57:26;0.80;99.90
20208;DHT22;10263;48.716;8.760;2023-01-28T10:59:53;0.80;99.90
20208;DHT22;10263;48.716;8.760;2023-01-28T11:02:25;0.80;99.90
20208;DHT22;10263;48.716;8.760;2023-01-28T11:05:02;0.80;99.90
20208;DHT22;10263;48.716;8.760;2023-01-28T11:09:57;0.80;99.90
20208;DHT22;10263;48.716;8.760;2023-01-28T11:12:26;0.90;99.90
20208;DHT22;10263;48.716;8.760;2023-01-28T11:14:54;0.90;99.90
20208;DHT22;10263;48.716;8.760;2023-01-28T11:17:25;0.90;99.90
20208;DHT22;10263;48.716;8.760;2023-01-28T11:19:54;1.00;99.90
20208;DHT22;10263;48.716;8.760;2023-01-28T11:22:28;1.00;99.90
20208;DHT22;10263;48.716;8.760;2023-01-28T11:27:27;1.10;99.90
20208;DHT22;10263;48.716;8.760;2023-01-28T11:29:56;1.10;99.90
20208;DHT22;10263;48.716;8.760;2023-01-28T11:32:28;1.10;99.90
20208;DHT22;10263;48.716;8.760;2023-01-28T11:34:56;1.10;99.90
20208;DHT22;10263;48.716;8.760;2023-01-28T11:37:25;1.10;99.90
20208;DHT22;10263;48.716;8.760;2023-01-28T11:40:12;1.10;99.90
20208;DHT22;10263;48.716;8.760;2023-01-28T11:45:15;1.20;99.90
20208;DHT22;10263;48.716;8.760;2023-01-28T11:47:52;1.20;99.90
20208;DHT22;10263;48.716;8.760;2023-01-28T11:50:36;1.20;99.90
20208;DHT22;10263;48.716;8.760;2023-01-28T11:53:28;1.20;99.90
20208;DHT22;10263;48.716;8.760;2023-01-28T11:56:18;1.10;99.90
20208;DHT22;10263;48.716;8.760;2023-01-28T11:58:57;1.10;99.90
20208;DHT22;10263;48.716;8.760;2023-01-28T12:01:34;1.10;99.90
20208;DHT22;10263;48.716;8.760;2023-01-28T12:04:20;1.00;99.90
20208;DHT22;10263;48.716;8.760;2023-01-28T12:07:07;1.00;99.90
20208;DHT22;10263;48.716;8.760;2023-01-28T12:09:43;1.00;99.90
20208;DHT22;10263;48.716;8.760;2023-01-28T12:15:47;1.00;99.90
20208;DHT22;10263;48.716;8.760;2023-01-28T12:18:22;-0.20;99.90
20208;DHT22;10263;48.716;8.760;2023-01-28T12:21:02;1.00;99.90
20208;DHT22;10263;48.716;8.760;2023-01-28T12:23:50;1.10;99.90
20208;DHT22;10263;48.716;8.760;2023-01-28T12:26:27;1.10;99.90
20208;DHT22;10263;48.716;8.760;2023-01-28T12:29:07;1.10;99.90
20208;DHT22;10263;48.716;8.760;2023-01-28T12:31:50;1.10;99.90
20208;DHT22;10263;48.716;8.760;2023-01-28T12:34:47;1.10;99.90
20208;DHT22;10263;48.716;8.760;2023-01-28T12:37:26;1.00;99.90
20208;DHT22;10263;48.716;8.760;2023-01-28T12:40:07;1.00;99.90
20208;DHT22;10263;48.716;8.760;2023-01-28T12:42:39;1.00;99.90
20208;DHT22;10263;48.716;8.760;2023-01-28T12:45:14;1.00;99.90
20208;DHT22;10263;48.716;8.760;2023-01-28T12:47:48;1.00;99.90
20208;DHT22;10263;48.716;8.760;2023-01-28T12:50:20;1.00;99.90
20208;DHT22;10263;48.716;8.760;2023-01-28T12:52:53;1.00;99.90
20208;DHT22;10263;48.716;8.760;2023-01-28T12:55:32;0.90;99.90
20208;DHT22;10263;48.716;8.760;2023-01-28T12:58:02;1.00;99.90
20208;DHT22;10263;48.716;8.760;2023-01-28T13:00:33;0.90;99.90
20208;DHT22;10263;48.716;8.760;2023-01-28T13:03:10;0.90;99.90
20208;DHT22;10263;48.716;8.760;2023-01-28T13:05:45;2.10;99.90
20208;DHT22;10263;48.716;8.760;2023-01-28T13:08:18;0.90;99.90
20208;DHT22;10263;48.716;8.760;2023-01-28T13:10:47;0.80;99.90
20208;DHT22;10263;48.716;8.760;2023-01-28T13:13:17;0.80;99.90
20208;DHT22;10263;48.716;8.760;2023-01-28T13:18:31;0.80;99.90
20208;DHT22;10263;48.716;8.760;2023-01-28T13:20:59;0.80;99.90
20208;DHT22;10263;48.716;8.760;2023-01-28T13:23:37;0.80;99.90
20208;DHT22;10263;48.716;8.760;2023-01-28T13:26:27;0.70;99.90
20208;DHT22;10263;48.716;8.760;2023-01-28T13:29:07;0.80;99.90
20208;DHT22;10263;48.716;8.760;2023-01-28T13:31:39;0.70;99.90
20208;DHT22;10263;48.716;8.760;2023-01-28T13:34:08;0.80;99.90
20208;DHT22;10263;48.716;8.760;2023-01-28T13:36:38;0.80;99.90
20208;DHT22;10263;48.716;8.760;2023-01-28T13:39:18;0.80;99.90
20208;DHT22;10263;48.716;8.760;2023-01-28T13:41:47;0.80;99.90
20208;DHT22;10263;48.716;8.760;2023-01-28T13:44:18;0.80;99.90
20208;DHT22;10263;48.716;8.760;2023-01-28T13:49:16;0.80;99.90
20208;DHT22;10263;48.716;8.760;2023-01-28T13:51:55;0.80;99.90
20208;DHT22;10263;48.716;8.760;2023-01-28T13:54:26;0.80;99.90
20208;DHT22;10263;48.716;8.760;2023-01-28T13:57:14;0.80;99.90
20208;DHT22;10263;48.716;8.760;2023-01-28T13:59:48;0.90;99.90
20208;DHT22;10263;48.716;8.760;2023-01-28T14:08:37;1.00;99.90
20208;DHT22;10263;48.716;8.760;2023-01-28T14:11:29;1.00;99.90
20208;DHT22;10263;48.716;8.760;2023-01-28T14:14:26;0.90;99.90
20208;DHT22;10263;48.716;8.760;2023-01-28T14:16:59;0.90;99.90
20208;DHT22;10263;48.716;8.760;2023-01-28T14:19:33;0.90;99.90
20208;DHT22;10263;48.716;8.760;2023-01-28T14:22:06;0.90;99.90
20208;DHT22;10263;48.716;8.760;2023-01-28T14:27:07;0.80;99.90
20208;DHT22;10263;48.716;8.760;2023-01-28T14:29:48;0.80;99.90
20208;DHT22;10263;48.716;8.760;2023-01-28T14:32:18;0.80;99.90
20208;DHT22;10263;48.716;8.760;2023-01-28T14:34:47;0.80;99.90
20208;DHT22;10263;48.716;8.760;2023-01-28T14:37:17;0.70;99.90
20208;DHT22;10263;48.716;8.760;2023-01-28T14:39:47;0.80;99.90
20208;DHT22;10263;48.716;8.760;2023-01-28T14:42:20;0.80;99.90
20208;DHT22;10263;48.716;8.760;2023-01-28T14:44:56;0.80;99.90
20208;DHT22;10263;48.716;8.760;2023-01-28T14:47:49;0.80;99.90
20208;DHT22;10263;48.716;8.760;2023-01-28T14:50:29;0.70;99.90
20208;DHT22;10263;48.716;8.760;2023-01-28T14:56:29;0.60;99.90
20208;DHT22;10263;48.716;8.760;2023-01-28T14:59:06;0.60;99.90
20208;DHT22;10263;48.716;8.760;2023-01-28T15:01:43;0.60;99.90
20208;DHT22;10263;48.716;8.760;2023-01-28T15:04:24;0.60;99.90
20208;DHT22;10263;48.716;8.760;2023-01-28T15:09:20;0.50;99.90
20208;DHT22;10263;48.716;8.760;2023-01-28T15:11:49;0.50;99.90
20208;DHT22;10263;48.716;8.760;2023-01-28T15:14:24;0.60;99.90
20208;DHT22;10263;48.716;8.760;2023-01-28T15:16:52;0.50;99.90
20208;DHT22;10263;48.716;8.760;2023-01-28T15:19:25;0.60;99.90
20208;DHT22;10263;48.716;8.760;2023-01-28T15:21:54;0.60;99.90
20208;DHT22;10263;48.716;8.760;2023-01-28T15:24:22;0.50;99.90
20208;DHT22;10263;48.716;8.760;2023-01-28T15:29:24;0.50;99.90
20208;DHT22;10263;48.716;8.760;2023-01-28T15:34:19;0.50;99.90
20208;DHT22;10263;48.716;8.760;2023-01-28T15:36:47;0.50;99.90
20208;DHT22;10263;48.716;8.760;2023-01-28T15:39:15;0.50;99.90
20208;DHT22;10263;48.716;8.760;2023-01-28T15:41:46;0.50;99.90
20208;DHT22;10263;48.716;8.760;2023-01-28T15:44:17;0.50;99.90
20208;DHT22;10263;48.716;8.760;2023-01-28T15:46:45;0.50;99.90
20208;DHT22;10263;48.716;8.760;2023-01-28T15:49:14;0.50;99.90
20208;DHT22;10263;48.716;8.760;2023-01-28T15:51:48;-0.20;99.90
20208;DHT22;10263;48.716;8.760;2023-01-28T15:54:16;0.50;99.90
20208;DHT22;10263;48.716;8.760;2023-01-28T15:59:24;0.50;99.90
20208;DHT22;10263;48.716;8.760;2023-01-28T16:02:12;0.50;99.90
20208;DHT22;10263;48.716;8.760;2023-01-28T16:04:40;0.50;99.90
20208;DHT22;10263;48.716;8.760;2023-01-28T16:09:35;0.50;99.90
20208;DHT22;10263;48.716;8.760;2023-01-28T16:12:03;0.40;99.90
20208;DHT22;10263;48.716;8.760;2023-01-28T16:14:36;1.40;99.90
20208;DHT22;10263;48.716;8.760;2023-01-28T16:17:07;0.40;99.90
20208;DHT22;10263;48.716;8.760;2023-01-28T16:19:37;0.40;99.90
20208;DHT22;10263;48.716;8.760;2023-01-28T16:22:05;0.40;99.90
20208;DHT22;10263;48.716;8.760;2023-01-28T16:24:34;0.30;99.90
20208;DHT22;10263;48.716;8.760;2023-01-28T16:27:02;0.40;99.90
20208;DHT22;10263;48.716;8.760;2023-01-28T16:29:30;0.40;99.90
20208;DHT22;10263;48.716;8.760;2023-01-28T16:31:57;0.30;99.90
20208;DHT22;10263;48.716;8.760;2023-01-28T16:34:26;1.00;99.90
20208;DHT22;10263;48.716;8.760;2023-01-28T16:36:55;0.30;99.90
20208;DHT22;10263;48.716;8.760;2023-01-28T16:41:49;0.30;99.90
20208;DHT22;10263;48.716;8.760;2023-01-28T16:51:41;0.30;99.90
20208;DHT22;10263;48.716;8.760;2023-01-28T16:56:38;0.20;99.90
20208;DHT22;10263;48.716;8.760;2023-01-28T16:59:05;0.30;99.90
20208;DHT22;10263;48.716;8.760;2023-01-28T17:03:59;0.30;99.90
20208;DHT22;10263;48.716;8.760;2023-01-28T17:08:54;0.30;99.90
20208;DHT22;10263;48.716;8.760;2023-01-28T17:11:21;0.20;99.90
20208;DHT22;10263;48.716;8.760;2023-01-28T17:18:42;0.30;99.90
20208;DHT22;10263;48.716;8.760;2023-01-28T17:21:10;0.30;99.90
20208;DHT22;10263;48.716;8.760;2023-01-28T17:23:36;0.30;99.90
20208;DHT22;10263;48.716;8.760;2023-01-28T17:26:07;0.30;99.90
20208;DHT22;10263;48.716;8.760;2023-01-28T17:28:34;0.30;99.90
20208;DHT22;10263;48.716;8.760;2023-01-28T17:31:04;0.30;99.90
20208;DHT22;10263;48.716;8.760;2023-01-28T17:35:59;0.30;99.90
20208;DHT22;10263;48.716;8.760;2023-01-28T17:38:27;0.30;99.90
20208;DHT22;10263;48.716;8.760;2023-01-28T17:40:53;0.20;99.90
20208;DHT22;10263;48.716;8.760;2023-01-28T17:43:22;0.20;99.90
20208;DHT22;10263;48.716;8.760;2023-01-28T17:48:16;0.30;99.90
20208;DHT22;10263;48.716;8.760;2023-01-28T17:50:43;0.30;99.90
20208;DHT22;10263;48.716;8.760;2023-01-28T17:55:37;0.20;99.90
20208;DHT22;10263;48.716;8.760;2023-01-28T18:00:32;0.10;99.90
20208;DHT22;10263;48.716;8.760;2023-01-28T18:15:15;0.20;99.90
20208;DHT22;10263;48.716;8.760;2023-01-28T18:17:44;0.20;99.90
20208;DHT22;10263;48.716;8.760;2023-01-28T18:20:11;0.20;99.90
20208;DHT22;10263;48.716;8.760;2023-01-28T18:25:05;0.20;99.90
20208;DHT22;10263;48.716;8.760;2023-01-28T18:30:00;0.10;99.90
20208;DHT22;10263;48.716;8.760;2023-01-28T18:34:55;0.10;99.90
20208;DHT22;10263;48.716;8.760;2023-01-28T18:37:22;0.10;99.90
20208;DHT22;10263;48.716;8.760;2023-01-28T18:39:48;0.10;99.90
20208;DHT22;10263;48.716;8.760;2023-01-28T18:44:42;0.20;99.90
20208;DHT22;10263;48.716;8.760;2023-01-28T18:47:09;0.10;99.90
20208;DHT22;10263;48.716;8.760;2023-01-28T18:52:05;0.10;99.90
20208;DHT22;10263;48.716;8.760;2023-01-28T18:54:32;0.10;99.90
20208;DHT22;10263;48.716;8.760;2023-01-28T18:59:26;0.00;99.90
20208;DHT22;10263;48.716;8.760;2023-01-28T19:09:16;0.10;99.90
20208;DHT22;10263;48.716;8.760;2023-01-28T19:14:15;0.10;99.90
20208;DHT22;10263;48.716;8.760;2023-01-28T19:19:09;0.10;99.90
20208;DHT22;10263;48.716;8.760;2023-01-28T19:24:05;0.10;99.90
20208;DHT22;10263;48.716;8.760;2023-01-28T19:26:36;0.00;99.90
20208;DHT22;10263;48.716;8.760;2023-01-28T19:29:05;0.10;99.90
20208;DHT22;10263;48.716;8.760;2023-01-28T19:31:33;0.10;99.90
20208;DHT22;10263;48.716;8.760;2023-01-28T19:34:00;-2.50;99.90
20208;DHT22;10263;48.716;8.760;2023-01-28T19:36:30;0.00;99.90
20208;DHT22;10263;48.716;8.760;2023-01-28T19:38:58;0.00;99.90
20208;DHT22;10263;48.716;8.760;2023-01-28T19:41:25;0.00;99.90
20208;DHT22;10263;48.716;8.760;2023-01-28T19:43:54;0.00;99.90
20208;DHT22;10263;48.716;8.760;2023-01-28T19:48:48;0.00;99.90
20208;DHT22;10263;48.716;8.760;2023-01-28T19:51:15;0.00;99.90
20208;DHT22;10263;48.716;8.760;2023-01-28T19:53:43;0.00;99.90
20208;DHT22;10263;48.716;8.760;2023-01-28T19:56:12;0.00;99.90
20208;DHT22;10263;48.716;8.760;2023-01-28T19:58:40;0.00;99.90
20208;DHT22;10263;48.716;8.760;2023-01-28T20:01:10;0.00;99.90
20208;DHT22;10263;48.716;8.760;2023-01-28T20:03:38;0.00;99.90
20208;DHT22;10263;48.716;8.760;2023-01-28T20:06:09;0.00;99.90
20208;DHT22;10263;48.716;8.760;2023-01-28T20:08:36;0.00;99.90
20208;DHT22;10263;48.716;8.760;2023-01-28T20:11:04;0.00;99.90
20208;DHT22;10263;48.716;8.760;2023-01-28T20:13:32;0.00;99.90
20208;DHT22;10263;48.716;8.760;2023-01-28T20:16:03;0.00;99.90
20208;DHT22;10263;48.716;8.760;2023-01-28T20:18:32;0.00;99.90
20208;DHT22;10263;48.716;8.760;2023-01-28T20:23:26;0.00;99.90
20208;DHT22;10263;48.716;8.760;2023-01-28T20:25:55;-0.10;99.90
20208;DHT22;10263;48.716;8.760;2023-01-28T20:28:23;-0.10;99.90
20208;DHT22;10263;48.716;8.760;2023-01-28T20:30:51;-0.10;99.90
20208;DHT22;10263;48.716;8.760;2023-01-28T20:33:18;-0.20;99.90
20208;DHT22;10263;48.716;8.760;2023-01-28T20:35:47;-0.20;99.90
20208;DHT22;10263;48.716;8.760;2023-01-28T20:38:14;-0.10;99.90
20208;DHT22;10263;48.716;8.760;2023-01-28T20:43:08;-0.10;99.90
20208;DHT22;10263;48.716;8.760;2023-01-28T20:45:35;-0.20;99.90
20208;DHT22;10263;48.716;8.760;2023-01-28T20:52:58;-0.20;99.90
20208;DHT22;10263;48.716;8.760;2023-01-28T21:00:21;-0.20;99.90
20208;DHT22;10263;48.716;8.760;2023-01-28T21:05:15;-0.20;99.90
20208;DHT22;10263;48.716;8.760;2023-01-28T21:07:42;-0.20;99.90
20208;DHT22;10263;48.716;8.760;2023-01-28T21:10:11;-0.30;99.90
20208;DHT22;10263;48.716;8.760;2023-01-28T21:12:37;-0.30;99.90
20208;DHT22;10263;48.716;8.760;2023-01-28T21:15:05;-0.30;99.90
20208;DHT22;10263;48.716;8.760;2023-01-28T21:20:00;-0.30;99.90
20208;DHT22;10263;48.716;8.760;2023-01-28T21:24:54;-0.30;99.90
20208;DHT22;10263;48.716;8.760;2023-01-28T21:27:22;-0.30;99.90
20208;DHT22;10263;48.716;8.760;2023-01-28T21:29:48;-0.30;99.90
20208;DHT22;10263;48.716;8.760;2023-01-28T21:34:42;-0.30;99.90
20208;DHT22;10263;48.716;8.760;2023-01-28T21:37:09;-0.30;99.90
20208;DHT22;10263;48.716;8.760;2023-01-28T21:42:03;-0.30;99.90
20208;DHT22;10263;48.716;8.760;2023-01-28T21:44:32;-0.30;99.90
20208;DHT22;10263;48.716;8.760;2023-01-28T21:56:49;-0.50;99.90
20208;DHT22;10263;48.716;8.760;2023-01-28T21:59:17;1.60;99.90
20208;DHT22;10263;48.716;8.760;2023-01-28T22:01:57;-0.40;99.90
20208;DHT22;10263;48.716;8.760;2023-01-28T22:04:25;-0.40;99.90
20208;DHT22;10263;48.716;8.760;2023-01-28T22:06:53;-0.40;99.90
20208;DHT22;10263;48.716;8.760;2023-01-28T22:09:21;-0.50;99.90
20208;DHT22;10263;48.716;8.760;2023-01-28T22:14:15;-0.50;99.90
20208;DHT22;10263;48.716;8.760;2023-01-28T22:16:42;0.20;99.90
20208;DHT22;10263;48.716;8.760;2023-01-28T22:19:11;-0.40;99.90
20208;DHT22;10263;48.716;8.760;2023-01-28T22:21:39;-0.50;99.90
20208;DHT22;10263;48.716;8.760;2023-01-28T22:24:08;-0.50;99.90
20208;DHT22;10263;48.716;8.760;2023-01-28T22:26:36;-0.50;99.90
20208;DHT22;10263;48.716;8.760;2023-01-28T22:29:03;-0.50;99.90
20208;DHT22;10263;48.716;8.760;2023-01-28T22:36:26;-0.60;99.90